Eagle, MI (48822)

8:29 AM EST on November 20, 2017 (GMT -0500)
windspirit dr | | Change Station
Active Advisory: Flood Advisory Active Notice: Flood Advisory

Elev 856 ft 42.76 °N, 84.72 °W | Updated 2 seconds ago

Clear
Clear
29.8 °F
Feels Like 23 °F
N
6.9
Wind Variable Wind from South
Gusts 9.8 mph

Today
High -- | Low -- °F
--% Chance of Precip.
Yesterday
High -- | Low -- °F
Precip. -- in
Pressure 30.02 in
Visibility 10.0 miles
Clouds Clear
Windchill 23 °F
Dew Point 25 °F
Humidity 81%
Rainfall 0.00 in
Snow Depth Not available.
7:37 AM 5:11 PM
Waxing Crescent, 4% visible
METAR KLAN 201253Z 20009KT 10SM CLR M02/M05 A2999 RMK AO2 SLP165 T10171050
Pressure 30.02 in
Visibility 10.0 miles
Clouds Clear
Windchill 23 °F
Dew Point 25 °F
Humidity 81%
Rainfall 0.00 in
Snow Depth Not available.
7:37 AM 5:11 PM
Waxing Crescent, 4% visible
METAR KLAN 201253Z 20009KT 10SM CLR M02/M05 A2999 RMK AO2 SLP165 T10171050

Get Your Daily Forecast Email!

Thanks for signing up!

Be on the lookout for a verification email in your inbox.

You'll start receiving severe weather alerts in your inbox..

×

10-Day Weather Forecast

Almanac

Astronomy

Nov. 20, 2017 Rise Set
Actual Time
Civil Twilight
Nautical Twilight
Astronomical Twilight
Moon
Length of Visible Light
Length of Day
Tomorrow will be .
, % of the Moon is Illuminated

Today's Extremes

State Highs State Lows

Community

WunderPhotos

Category 6

Welcome to Category 6. This is the collective home for Weather Underground's featured writeups by Dr. Jeff Masters (right), Bob Henson (left), Chris Burt, and other regular contributors.

Nearby

Air Quality

  Air Quality AQ Index Pollutant
Not available.

Snow Depth

Station Depth Elevation

Earthquake Activity

City Distance Mag. Time & Date
Minimum magnitude displayed is 2.5.

Coastal Water Temperatures

Place Temperature

Stations

Nearby Weather Stations

Station Location Temp. Windchill Dew Point Humidity Wind Precip. Elev Updated Type
                   

Watches & Warnings

Flood Advisory
Issued: 9:12 PM EST Nov. 19, 2017 – National Weather Service

The flood advisory continues for
the Maple River at Maple Rapids
* until further notice.
* At 08 PM Sunday the stage was 6.5 feet.
* Bankfull stage is 7.0 feet.
* Flood stage is 9.0 feet.
* Forecast, the river will rise to near 7.6 feet by Wednesday
evening.
* Impact, at 7.0 feet... river is bankfull. Expect minor flooding in
low lying pastures, farmland, and wooded areas adjacent to the
river.


Lat... Lon 4302 8495 4314 8471 4317 8456 4310 8457
      4308 8468 4298 8493




912 PM EST sun Nov 19 2017

The flood advisory continues for
the Looking Glass river near Eagle
* until further notice.
* At 08 PM Sunday the stage was 5.7 feet.
* Bankfull stage is 5.0 feet.
* Flood stage is 7.0 feet.
* Forecast, the river will continue to fall.
* Impact, at 6.0 feet... expect minor flooding of low lying wooded
areas.


Lat... Lon 4290 8489 4286 8474 4287 8455 4281 8455
      4279 8474 4283 8489